| time (UTC) | temp F | wind direction | speed MPH | gust MPH | rain 1hr in | rain 24hr in | rain mn in | humidity % | barometer mb |
| 20260906201002 | 83 | 6 | 3.0 | 5.0 | 0.00 | 0.74 | 0.00 | 32 | 1007.3 |
| 20260906200003 | 81 | 66 | 3.0 | 4.0 | 0.00 | 0.74 | 0.00 | 31 | 1006.8 |
| 20260906195003 | 81 | 2 | 3.0 | 4.0 | 0.00 | 0.74 | 0.00 | 30 | 1006.4 |
| 20260906194003 | 80 | 49 | 3.0 | 4.0 | 0.00 | 0.74 | 0.00 | 32 | 1005.8 |
| 20260906193003 | 79 | 59 | 2.0 | 4.0 | 0.00 | 0.74 | 0.00 | 33 | 1005.2 |
| 20260906192003 | 79 | 337 | 2.0 | 4.0 | 0.00 | 0.74 | 0.00 | 35 | 1004.8 |
| 20260906191003 | 80 | 43 | 3.0 | 8.0 | 0.00 | 0.74 | 0.00 | 36 | 1004.3 |
| 20260906190003 | 79 | 30 | 3.0 | 3.0 | 0.74 | 0.74 | 0.00 | 35 | 1003.9 |
| 20260906185002 | 79 | 132 | 3.0 | 5.0 | 0.74 | 0.74 | 0.00 | 36 | 1003.4 |
| 20260906184003 | 79 | 348 | 3.0 | 4.0 | 0.74 | 0.74 | 0.00 | 36 | 1003.0 |
| 20260906183003 | 77 | 13 | 2.0 | 4.0 | 0.74 | 0.74 | 0.00 | 41 | 1002.6 |
| 20260906182003 | 79 | 335 | 3.0 | 5.0 | 0.74 | 0.74 | 0.00 | 37 | 1002.2 |
| 20260906180003 | 72 | 45 | 1.0 | 2.0 | 0.00 | 0.00 | 0.00 | 79 | 1011.0 |
| 20260906175003 | 72 | 45 | 1.0 | 2.0 | 0.00 | 0.00 | 0.00 | 79 | 1010.8 |
| 20260906174003 | 72 | 45 | 1.0 | 2.0 | 0.00 | 0.00 | 0.00 | 79 | 1010.5 |
| 20260906171003 | 72 | 45 | 1.0 | 2.0 | 0.00 | 0.00 | 0.00 | 79 | 1009.6 |
| 20260906170003 | 72 | 45 | 1.0 | 2.0 | 0.00 | 0.00 | 0.00 | 79 | 1009.7 |
| 20260906164003 | 72 | 45 | 1.0 | 2.0 | 0.00 | 0.00 | 0.00 | 79 | 1009.0 |
| 20260906162003 | 72 | 45 | 1.0 | 2.0 | 0.00 | 0.00 | 0.00 | 79 | 1008.5 |
| 20260906161003 | 72 | 45 | 1.0 | 2.0 | 0.00 | 0.00 | 0.00 | 79 | 1008.3 |
| 20260906160003 | 72 | 45 | 1.0 | 2.0 | 0.00 | 0.00 | 0.00 | 79 | 1007.9 |
| 20260906155004 | 72 | 45 | 1.0 | 2.0 | 0.00 | 0.00 | 0.00 | 79 | 1007.9 |
| 20260906154003 | 72 | 45 | 1.0 | 2.0 | 0.00 | 0.00 | 0.00 | 79 | 1007.6 |
| 20260906152003 | 72 | 45 | 1.0 | 2.0 | 0.00 | 0.00 | 0.00 | 79 | 1007.1 |
| 20260906151002 | 72 | 45 | 1.0 | 2.0 | 0.00 | 0.00 | 0.00 | 79 | 1006.9 |
| 20260906150003 | 72 | 45 | 1.0 | 2.0 | 0.00 | 0.00 | 0.00 | 79 | 1006.7 |
| 20260906145003 | 72 | 45 | 1.0 | 2.0 | 0.00 | 0.00 | 0.00 | 79 | 1006.6 |
| 20260906143003 | 72 | 45 | 1.0 | 2.0 | 0.00 | 0.00 | 0.00 | 79 | 1006.3 |
| 20260906142003 | 72 | 45 | 1.0 | 2.0 | 0.00 | 0.00 | 0.00 | 79 | 1006.2 |
| 20260906141003 | 72 | 45 | 1.0 | 2.0 | 0.00 | 0.00 | 0.00 | 79 | 1006.0 |
| 20260906135003 | 72 | 45 | 1.0 | 2.0 | 0.00 | 0.00 | 0.00 | 79 | 1005.7 |
| 20260906134004 | 72 | 45 | 1.0 | 2.0 | 0.00 | 0.00 | 0.00 | 79 | 1005.3 |
| 20260906133003 | 72 | 45 | 1.0 | 2.0 | 0.00 | 0.00 | 0.00 | 79 | 1005.3 |
| 20260906132003 | 72 | 45 | 1.0 | 2.0 | 0.00 | 0.00 | 0.00 | 79 | 1005.1 |
| 20260906131003 | 72 | 45 | 1.0 | 2.0 | 0.00 | 0.00 | 0.00 | 79 | 1004.9 |
| 20260906130003 | 72 | 45 | 1.0 | 2.0 | 0.00 | 0.00 | 0.00 | 79 | 1004.7 |
| 20260906125003 | 72 | 45 | 1.0 | 2.0 | 0.00 | 0.00 | 0.00 | 79 | 1004.5 |
| 20260906124003 | 72 | 45 | 1.0 | 2.0 | 0.00 | 0.00 | 0.00 | 79 | 1004.4 |
| 20260906123003 | 72 | 45 | 1.0 | 2.0 | 0.00 | 0.00 | 0.00 | 79 | 1004.3 |
| 20260906122003 | 72 | 45 | 1.0 | 2.0 | 0.00 | 0.00 | 0.00 | 79 | 1004.2 |
| 20260906121003 | 72 | 45 | 1.0 | 2.0 | 0.00 | 0.00 | 0.00 | 79 | 1004.0 |
| 20260906115004 | 72 | 45 | 1.0 | 2.0 | 0.00 | 0.00 | 0.00 | 79 | 1003.9 |
| 20260906114003 | 72 | 45 | 1.0 | 2.0 | 0.00 | 0.00 | 0.00 | 79 | 1003.9 |
| 20260906113003 | 72 | 45 | 1.0 | 2.0 | 0.00 | 0.00 | 0.00 | 79 | 1003.7 |
| 20260906111003 | 72 | 45 | 1.0 | 2.0 | 0.00 | 0.00 | 0.00 | 79 | 1003.5 |
| 20260906110003 | 72 | 45 | 1.0 | 2.0 | 0.00 | 0.00 | 0.00 | 79 | 1003.5 |
| 20260906105003 | 72 | 45 | 1.0 | 2.0 | 0.00 | 0.00 | 0.00 | 79 | 1003.5 |
| 20260906104003 | 72 | 45 | 1.0 | 2.0 | 0.00 | 0.00 | 0.00 | 79 | 1003.6 |
| 20260906103003 | 72 | 45 | 1.0 | 2.0 | 0.00 | 0.00 | 0.00 | 79 | 1003.6 |
| 20260906102003 | 72 | 45 | 1.0 | 2.0 | 0.00 | 0.00 | 0.00 | 79 | 1003.5 |
| 20260906101003 | 72 | 45 | 1.0 | 2.0 | 0.00 | 0.00 | 0.00 | 79 | 1003.6 |
| 20260906100004 | 72 | 45 | 1.0 | 2.0 | 0.00 | 0.00 | 0.00 | 79 | 1003.5 |
| 20260906095003 | 72 | 45 | 1.0 | 2.0 | 0.00 | 0.00 | 0.00 | 79 | 1003.5 |
| 20260906094003 | 72 | 45 | 1.0 | 2.0 | 0.00 | 0.00 | 0.00 | 79 | 1003.6 |
| 20260906093004 | 72 | 45 | 1.0 | 2.0 | 0.00 | 0.00 | 0.00 | 79 | 1003.5 |
| 20260906092002 | 72 | 45 | 1.0 | 2.0 | 0.00 | 0.00 | 0.00 | 79 | 1003.5 |
| 20260906085003 | 72 | 45 | 1.0 | 2.0 | 0.00 | 0.00 | 0.00 | 79 | 1003.5 |
| 20260906084002 | 72 | 45 | 1.0 | 2.0 | 0.00 | 0.00 | 0.00 | 79 | 1003.4 |
| 20260906083002 | 72 | 45 | 1.0 | 2.0 | 0.00 | 0.00 | 0.00 | 79 | 1003.7 |
| 20260906082003 | 72 | 45 | 1.0 | 2.0 | 0.00 | 0.00 | 0.00 | 79 | 1003.8 |
| 20260906081002 | 72 | 45 | 1.0 | 2.0 | 0.00 | 0.00 | 0.00 | 79 | 1003.9 |
| 20260906080003 | 72 | 45 | 1.0 | 2.0 | 0.00 | 0.00 | 0.00 | 79 | 1003.8 |
| 20260906075002 | 72 | 45 | 1.0 | 2.0 | 0.00 | 0.00 | 0.00 | 79 | 1003.6 |
| 20260906074002 | 72 | 45 | 1.0 | 2.0 | 0.00 | 0.00 | 0.00 | 79 | 1003.5 |
| 20260906073002 | 72 | 45 | 1.0 | 2.0 | 0.00 | 0.00 | 0.00 | 79 | 1003.5 |
| 20260906072002 | 72 | 45 | 1.0 | 2.0 | 0.00 | 0.00 | 0.00 | 79 | 1003.3 |
| 20260906071003 | 72 | 45 | 1.0 | 2.0 | 0.00 | 0.00 | 0.00 | 79 | 1003.2 |
| 20260906070003 | 72 | 45 | 1.0 | 2.0 | 0.00 | 0.00 | 0.00 | 79 | 1003.0 |
| 20260906065002 | 72 | 45 | 1.0 | 2.0 | 0.00 | 0.00 | 0.00 | 79 | 1003.1 |
| 20260906064002 | 72 | 45 | 1.0 | 2.0 | 0.00 | 0.00 | 0.00 | 79 | 1003.2 |
| 20260906063002 | 72 | 45 | 1.0 | 2.0 | 0.00 | 0.00 | 0.00 | 79 | 1003.1 |
| 20260906061002 | 72 | 45 | 1.0 | 2.0 | 0.00 | 0.00 | 0.00 | 79 | 1002.8 |
| 20260906060003 | 72 | 45 | 1.0 | 2.0 | 0.00 | 0.00 | 0.00 | 79 | 1002.8 |
| 20260906055003 | 72 | 45 | 1.0 | 2.0 | 0.00 | 0.00 | 0.00 | 79 | 1002.6 |
| 20260906054002 | 72 | 45 | 1.0 | 2.0 | 0.00 | 0.00 | 0.00 | 79 | 1002.7 |
| 20260906053003 | 72 | 45 | 1.0 | 2.0 | 0.00 | 0.00 | 0.00 | 79 | 1002.6 |
| 20260906052002 | 72 | 45 | 1.0 | 2.0 | 0.00 | 0.00 | 0.00 | 79 | 1002.4 |
| 20260906051002 | 72 | 45 | 1.0 | 2.0 | 0.00 | 0.00 | 0.00 | 79 | 1002.7 |
| 20260906050002 | 72 | 45 | 1.0 | 2.0 | 0.00 | 0.00 | 0.00 | 79 | 1002.3 |
| 20260906045002 | 72 | 45 | 1.0 | 2.0 | 0.00 | 0.00 | 0.00 | 79 | 1002.4 |
| 20260906044002 | 72 | 45 | 1.0 | 2.0 | 0.00 | 0.00 | 0.00 | 79 | 1002.3 |
| 20260906043002 | 72 | 45 | 1.0 | 2.0 | 0.00 | 0.00 | 0.00 | 79 | 1002.4 |
| 20260906042002 | 72 | 45 | 1.0 | 2.0 | 0.00 | 0.00 | 0.00 | 79 | 1002.2 |
| 20260906040003 | 72 | 45 | 1.0 | 2.0 | 0.00 | 0.00 | 0.00 | 79 | 1002.1 |
| 20260906035003 | 72 | 45 | 1.0 | 2.0 | 0.00 | 0.00 | 0.00 | 79 | 1001.9 |
| 20260906034002 | 72 | 45 | 1.0 | 2.0 | 0.00 | 0.00 | 0.00 | 79 | 1001.8 |
| 20260906033002 | 72 | 45 | 1.0 | 2.0 | 0.00 | 0.00 | 0.00 | 79 | 1002.0 |
| 20260906032002 | 72 | 45 | 1.0 | 2.0 | 0.00 | 0.00 | 0.00 | 79 | 1001.5 |
| 20260906030003 | 72 | 45 | 1.0 | 2.0 | 0.00 | 0.00 | 0.00 | 79 | 1000.4 |
| 20260906025002 | 72 | 45 | 1.0 | 2.0 | 0.00 | 0.00 | 0.00 | 79 | 1000.0 |
| 20260906024003 | 72 | 45 | 1.0 | 2.0 | 0.00 | 0.00 | 0.00 | 79 | 1000.2 |
| 20260906023002 | 72 | 45 | 1.0 | 2.0 | 0.00 | 0.00 | 0.00 | 79 | 1000.6 |
| 20260906022003 | 72 | 45 | 1.0 | 2.0 | 0.00 | 0.00 | 0.00 | 79 | 1000.9 |
| 20260906021002 | 72 | 45 | 1.0 | 2.0 | 0.00 | 0.00 | 0.00 | 79 | 1001.2 |
| 20260906020003 | 72 | 45 | 1.0 | 2.0 | 0.00 | 0.00 | 0.00 | 79 | 1001.7 |
| 20260906015002 | 72 | 45 | 1.0 | 2.0 | 0.00 | 0.00 | 0.00 | 79 | 1001.9 |
| 20260906014002 | 72 | 45 | 1.0 | 2.0 | 0.00 | 0.00 | 0.00 | 79 | 1002.4 |
| 20260906013003 | 72 | 45 | 1.0 | 2.0 | 0.00 | 0.00 | 0.00 | 79 | 1002.9 |
| 20260906012002 | 72 | 45 | 1.0 | 2.0 | 0.00 | 0.00 | 0.00 | 79 | 1003.4 |
| 20260906011002 | 72 | 45 | 1.0 | 2.0 | 0.00 | 0.00 | 0.00 | 79 | 1003.9 |
| 20260906010003 | 72 | 45 | 1.0 | 2.0 | 0.00 | 0.00 | 0.00 | 79 | 1004.6 |
| 20260906005002 | 72 | 45 | 1.0 | 2.0 | 0.00 | 0.00 | 0.00 | 79 | 1005.1 |
| 20260906004003 | 72 | 45 | 1.0 | 2.0 | 0.00 | 0.00 | 0.00 | 79 | 1005.7 |
| 20260906003003 | 72 | 45 | 1.0 | 2.0 | 0.00 | 0.00 | 0.00 | 79 | 1006.5 |
| 20260906001002 | 72 | 45 | 1.0 | 2.0 | 0.00 | 0.00 | 0.00 | 79 | 1008.0 |
| 20260906000003 | 72 | 45 | 1.0 | 2.0 | 0.00 | 0.00 | 0.00 | 79 | 1009.1 |
| 20260905235003 | 72 | 45 | 1.0 | 2.0 | 0.00 | 0.00 | 0.00 | 79 | 1001.1 |
| 20260905234003 | 72 | 45 | 1.0 | 2.0 | 0.00 | 0.00 | 0.00 | 79 | 1002.3 |
| 20260905233003 | 72 | 45 | 1.0 | 2.0 | 0.00 | 0.00 | 0.00 | 79 | 1003.9 |
| 20260905232002 | 72 | 45 | 1.0 | 2.0 | 0.00 | 0.00 | 0.00 | 79 | 1005.4 |
| 20260905231003 | 72 | 45 | 1.0 | 2.0 | 0.00 | 0.00 | 0.00 | 79 | 1006.0 |
| 20260905230003 | 72 | 45 | 1.0 | 2.0 | 0.00 | 0.00 | 0.00 | 79 | 1005.8 |
| 20260905225002 | 72 | 45 | 1.0 | 2.0 | 0.00 | 0.00 | 0.00 | 79 | 1005.6 |
| 20260905224003 | 72 | 45 | 1.0 | 2.0 | 0.00 | 0.00 | 0.00 | 79 | 1005.7 |
| 20260905223003 | 72 | 45 | 1.0 | 2.0 | 0.00 | 0.00 | 0.00 | 79 | 1005.7 |
| 20260905222002 | 72 | 45 | 1.0 | 2.0 | 0.00 | 0.00 | 0.00 | 79 | 1005.9 |
| 20260905221003 | 72 | 45 | 1.0 | 2.0 | 0.00 | 0.00 | 0.00 | 79 | 1005.9 |
| 20260905220004 | 72 | 45 | 1.0 | 2.0 | 0.00 | 0.00 | 0.00 | 79 | 1005.9 |
| 20260905215003 | 72 | 45 | 1.0 | 2.0 | 0.00 | 0.00 | 0.00 | 79 | 1006.0 |
| 20260905214003 | 72 | 45 | 1.0 | 2.0 | 0.00 | 0.00 | 0.00 | 79 | 1005.9 |
| 20260905213003 | 72 | 45 | 1.0 | 2.0 | 0.00 | 0.00 | 0.00 | 79 | 1005.7 |
| 20260905212002 | 72 | 45 | 1.0 | 2.0 | 0.00 | 0.00 | 0.00 | 79 | 1005.1 |
| 20260905211003 | 72 | 45 | 1.0 | 2.0 | 0.00 | 0.00 | 0.00 | 79 | 1004.8 |
| 20260905210003 | 72 | 45 | 1.0 | 2.0 | 0.00 | 0.00 | 0.00 | 79 | 1004.5 |
| 20260905205002 | 72 | 45 | 1.0 | 2.0 | 0.00 | 0.00 | 0.00 | 79 | 1004.4 |
| 20260905204003 | 72 | 45 | 1.0 | 2.0 | 0.00 | 0.00 | 0.00 | 79 | 1004.3 |
| 20260905203003 | 72 | 45 | 1.0 | 2.0 | 0.00 | 0.00 | 0.00 | 79 | 1004.2 |
| 20260905202002 | 72 | 45 | 1.0 | 2.0 | 0.00 | 0.00 | 0.00 | 79 | 1004.3 |